Frontenac, Minnesota
Current Conditions -  °F | °C
As of 10:31 PM on Sunday 25 Jan 2015 (Local Time) from KRGK Reporting Station
Clear Clear  
Wind Chill: 16°   Ceiling: Unl
Heat Index: 16°   Visibility: 10mi
Dew Point: 12°   Wind: 0mph
Humidity: 86%   Direction: NA
Pressure: 30.02"   Gusts: NA
Location:  44.51°N, 92.36°W
Report Text: KRGK 260431Z AUTO 00000KT 10SM CLR M09/M11 A3002 RMK AO2
Loading
Personal Weather Stations






























Interactive Weather Map New forecast layout! Learn more

10-Day Weather Forecast

Advertisements
Track Severe Weather on mobile